createdAt,value
2019-01-14T00:00:02.603Z,6.78
2019-01-14T00:01:02.754Z,6.77
2019-01-14T00:02:02.551Z,6.76
2019-01-14T00:03:02.749Z,6.79
2019-01-14T00:04:02.453Z,6.8
2019-01-14T00:05:02.435Z,6.78
2019-01-14T00:06:02.472Z,6.79
2019-01-14T00:07:02.601Z,6.78
2019-01-14T00:08:02.709Z,6.77
2019-01-14T00:09:02.470Z,6.77
2019-01-14T00:10:02.576Z,6.74
2019-01-14T00:11:02.588Z,6.71
2019-01-14T00:12:02.492Z,6.71
2019-01-14T00:13:02.425Z,6.71
2019-01-14T00:14:02.622Z,6.72
2019-01-14T00:15:02.941Z,6.73
2019-01-14T00:16:02.807Z,6.65
2019-01-14T00:17:02.500Z,6.71
2019-01-14T00:18:02.503Z,6.68
2019-01-14T00:19:02.489Z,6.69
2019-01-14T00:20:02.574Z,6.7
2019-01-14T00:21:02.423Z,6.7
2019-01-14T00:22:02.528Z,6.72
2019-01-14T00:23:02.414Z,6.72
2019-01-14T00:24:02.796Z,6.71
2019-01-14T00:25:02.547Z,6.72
2019-01-14T00:26:02.491Z,6.74
2019-01-14T00:27:02.437Z,6.71
2019-01-14T00:28:02.430Z,6.7
2019-01-14T00:29:02.405Z,6.71
2019-01-14T00:30:02.587Z,6.74
2019-01-14T00:31:02.370Z,6.74
2019-01-14T00:32:02.660Z,6.72
2019-01-14T00:33:02.600Z,6.68
2019-01-14T00:34:02.464Z,6.63
2019-01-14T00:35:02.404Z,6.58
2019-01-14T00:36:02.482Z,6.58
2019-01-14T00:37:02.542Z,6.59
2019-01-14T00:38:02.430Z,6.59
2019-01-14T00:39:02.581Z,6.58
2019-01-14T00:40:02.659Z,6.55
2019-01-14T00:41:02.449Z,6.55
2019-01-14T00:42:02.398Z,6.57
2019-01-14T00:43:02.430Z,6.57
2019-01-14T00:44:02.379Z,6.55
2019-01-14T00:45:02.370Z,6.55
2019-01-14T00:46:02.653Z,6.54
2019-01-14T00:47:02.656Z,6.53
2019-01-14T00:48:02.667Z,6.54
2019-01-14T00:49:02.526Z,6.53
2019-01-14T00:50:02.761Z,6.54
2019-01-14T00:51:02.627Z,6.55
2019-01-14T00:52:02.440Z,6.53
2019-01-14T00:53:02.803Z,6.53
2019-01-14T00:54:02.461Z,6.54
2019-01-14T00:55:02.359Z,6.54
2019-01-14T00:56:02.700Z,6.55
2019-01-14T00:57:02.733Z,6.56
2019-01-14T00:58:02.952Z,6.57
2019-01-14T00:59:02.344Z,6.56
2019-01-14T01:00:02.471Z,6.57
2019-01-14T01:01:02.322Z,6.53
2019-01-14T01:02:02.582Z,6.53
2019-01-14T01:03:02.387Z,6.53
2019-01-14T01:04:03.205Z,6.51
2019-01-14T01:05:02.492Z,6.53
2019-01-14T01:06:02.357Z,6.49
2019-01-14T01:07:02.468Z,6.49
2019-01-14T01:08:02.496Z,6.5
2019-01-14T01:09:02.764Z,6.51
2019-01-14T01:10:02.436Z,6.54
2019-01-14T01:11:02.332Z,6.5
2019-01-14T01:12:02.331Z,6.48
2019-01-14T01:13:04.116Z,6.5
2019-01-14T01:14:02.540Z,6.48
2019-01-14T01:15:04.188Z,6.46
2019-01-14T01:16:02.298Z,6.46
2019-01-14T01:17:03.511Z,6.45
2019-01-14T01:18:02.546Z,6.45
2019-01-14T01:19:02.701Z,6.44
2019-01-14T01:20:03.193Z,6.43
2019-01-14T01:21:02.491Z,6.4
2019-01-14T01:22:02.350Z,6.39
2019-01-14T01:23:02.340Z,6.41
2019-01-14T01:24:03.226Z,6.37
2019-01-14T01:25:02.488Z,6.37
2019-01-14T01:26:02.331Z,6.38
2019-01-14T01:27:02.749Z,6.37
2019-01-14T01:28:02.571Z,6.37
2019-01-14T01:29:02.755Z,6.36
2019-01-14T01:30:02.401Z,6.37
2019-01-14T01:31:04.108Z,6.37
2019-01-14T01:32:02.597Z,6.37
2019-01-14T01:33:03.154Z,6.38
2019-01-14T01:34:04.125Z,6.39
2019-01-14T01:35:02.424Z,6.35
2019-01-14T01:36:04.143Z,6.34
2019-01-14T01:37:02.516Z,6.31
2019-01-14T01:38:02.342Z,6.33
2019-01-14T01:39:02.574Z,6.29
2019-01-14T01:40:03.137Z,6.32
2019-01-14T01:41:02.524Z,6.3
2019-01-14T01:42:02.425Z,6.31
2019-01-14T01:43:02.316Z,6.3
2019-01-14T01:44:02.395Z,6.31
2019-01-14T01:45:02.394Z,6.29
2019-01-14T01:46:02.456Z,6.31
2019-01-14T01:47:02.560Z,6.27
2019-01-14T01:48:02.503Z,6.27
2019-01-14T01:49:02.395Z,6.27
2019-01-14T01:50:03.140Z,6.26
2019-01-14T01:51:02.390Z,6.22
2019-01-14T01:52:02.427Z,6.25
2019-01-14T01:53:02.294Z,6.22
2019-01-14T01:54:02.608Z,6.24
2019-01-14T01:55:02.632Z,6.22
2019-01-14T01:56:02.488Z,6.22
2019-01-14T01:57:02.503Z,6.21
2019-01-14T01:58:02.655Z,6.18
2019-01-14T01:59:02.316Z,6.2
2019-01-14T02:00:02.567Z,6.21
2019-01-14T02:01:02.449Z,6.19
2019-01-14T02:02:02.622Z,6.16
2019-01-14T02:03:02.513Z,6.18
2019-01-14T02:04:02.309Z,6.16
2019-01-14T02:05:02.380Z,6.16
2019-01-14T02:06:02.287Z,6.17
2019-01-14T02:07:02.648Z,6.14
2019-01-14T02:08:02.372Z,6.15
2019-01-14T02:09:02.337Z,6.13
2019-01-14T02:10:02.488Z,6.15
2019-01-14T02:11:02.211Z,6.13
2019-01-14T02:12:02.997Z,6.14
2019-01-14T02:13:02.202Z,6.12
2019-01-14T02:14:02.355Z,6.14
2019-01-14T02:15:02.209Z,6.11
2019-01-14T02:16:02.375Z,6.09
2019-01-14T02:17:02.245Z,6.1
2019-01-14T02:18:02.323Z,6.11
2019-01-14T02:19:02.695Z,6.11
2019-01-14T02:20:02.277Z,6.12
2019-01-14T02:21:02.242Z,6.09
2019-01-14T02:22:02.225Z,6.09
2019-01-14T02:23:02.278Z,6.09
2019-01-14T02:24:02.274Z,6.11
2019-01-14T02:25:02.346Z,6.09
2019-01-14T02:26:02.243Z,6.08
2019-01-14T02:27:02.511Z,6.09
2019-01-14T02:28:02.732Z,6.1
2019-01-14T02:29:02.298Z,6.11
2019-01-14T02:30:02.923Z,6.08
2019-01-14T02:31:02.259Z,6.1
2019-01-14T02:32:02.563Z,6.1
2019-01-14T02:33:02.569Z,6.09
2019-01-14T02:34:02.419Z,6.08
2019-01-14T02:35:02.217Z,6.09
2019-01-14T02:36:02.683Z,6.11
2019-01-14T02:37:02.261Z,6.08
2019-01-14T02:38:02.424Z,6.1
2019-01-14T02:39:02.548Z,6.09
2019-01-14T02:40:02.294Z,6.08
2019-01-14T02:41:02.536Z,6.09
2019-01-14T02:42:02.197Z,6.09
2019-01-14T02:43:02.308Z,6.08
2019-01-14T02:44:02.270Z,6.06
2019-01-14T02:45:02.341Z,6.1
2019-01-14T02:46:02.745Z,6.11
2019-01-14T02:47:02.206Z,6.08
2019-01-14T02:48:02.218Z,6.11
2019-01-14T02:49:02.260Z,6.08
2019-01-14T02:50:02.409Z,6.1
2019-01-14T02:51:02.208Z,6.08
2019-01-14T02:52:02.223Z,6.07
2019-01-14T02:53:02.297Z,6.08
2019-01-14T02:54:02.405Z,6.07
2019-01-14T02:55:02.536Z,6.07
2019-01-14T02:56:02.529Z,6.06
2019-01-14T02:57:02.566Z,6.06
2019-01-14T02:58:02.288Z,6.05
2019-01-14T02:59:02.592Z,6.03
2019-01-14T03:00:02.716Z,6.03
2019-01-14T03:01:02.257Z,6.03
2019-01-14T03:02:02.320Z,6.03
2019-01-14T03:03:02.243Z,6.02
2019-01-14T03:04:02.355Z,6.03
2019-01-14T03:05:02.441Z,6.02
2019-01-14T03:06:02.633Z,6.01
2019-01-14T03:07:02.932Z,6
2019-01-14T03:08:03.076Z,6
2019-01-14T03:09:02.278Z,6
2019-01-14T03:10:02.437Z,5.98
2019-01-14T03:11:02.280Z,5.99
2019-01-14T03:12:02.176Z,6.01
2019-01-14T03:13:02.543Z,5.98
2019-01-14T03:14:02.243Z,5.99
2019-01-14T03:15:02.487Z,5.98
2019-01-14T03:16:03.960Z,5.99
2019-01-14T03:17:02.436Z,5.98
2019-01-14T03:18:02.176Z,5.98
2019-01-14T03:19:02.167Z,5.97
2019-01-14T03:20:03.212Z,5.97
2019-01-14T03:21:02.363Z,5.93
2019-01-14T03:22:02.397Z,5.93
2019-01-14T03:23:02.590Z,5.95
2019-01-14T03:24:02.205Z,5.92
2019-01-14T03:25:02.237Z,5.93
2019-01-14T03:26:02.241Z,5.92
2019-01-14T03:27:02.215Z,5.89
2019-01-14T03:28:02.226Z,5.89
2019-01-14T03:29:02.115Z,5.9
2019-01-14T03:30:02.242Z,5.9
2019-01-14T03:31:02.989Z,5.89
2019-01-14T03:32:02.998Z,5.88
2019-01-14T03:33:02.377Z,5.87
2019-01-14T03:34:02.683Z,5.86
2019-01-14T03:35:02.286Z,5.88
2019-01-14T03:36:02.965Z,5.85
2019-01-14T03:37:06.051Z,5.87
2019-01-14T03:38:02.292Z,5.87
2019-01-14T03:39:02.321Z,5.87
2019-01-14T03:40:02.441Z,5.85
2019-01-14T03:41:02.086Z,5.87
2019-01-14T03:42:02.116Z,5.85
2019-01-14T03:43:02.486Z,5.87
2019-01-14T03:44:02.171Z,5.85
2019-01-14T03:45:02.412Z,5.86
2019-01-14T03:46:03.944Z,5.87
2019-01-14T03:47:02.168Z,5.84
2019-01-14T03:48:02.368Z,5.86
2019-01-14T03:49:02.280Z,5.88
2019-01-14T03:50:02.390Z,5.88
2019-01-14T03:51:02.232Z,5.9
2019-01-14T03:52:02.820Z,5.9
2019-01-14T03:53:02.602Z,5.92
2019-01-14T03:54:02.166Z,5.92
2019-01-14T03:55:02.422Z,5.88
2019-01-14T03:56:02.432Z,5.86
2019-01-14T03:57:02.171Z,5.87
2019-01-14T03:58:02.347Z,5.88
2019-01-14T03:59:02.483Z,5.91
2019-01-14T04:00:02.214Z,5.94
2019-01-14T04:01:02.132Z,5.95
2019-01-14T04:02:02.369Z,5.94
2019-01-14T04:03:02.272Z,5.95
2019-01-14T04:04:02.124Z,5.94
2019-01-14T04:05:02.299Z,5.94
2019-01-14T04:06:02.117Z,5.96
2019-01-14T04:07:02.151Z,5.96
2019-01-14T04:08:02.311Z,5.96
2019-01-14T04:09:02.112Z,5.97
2019-01-14T04:10:02.352Z,5.98
2019-01-14T04:11:02.694Z,5.98
2019-01-14T04:12:02.135Z,5.99
2019-01-14T04:13:02.152Z,5.99
2019-01-14T04:14:02.755Z,5.98
2019-01-14T04:15:02.457Z,5.99
2019-01-14T04:16:02.203Z,5.91
2019-01-14T04:17:02.202Z,5.97
2019-01-14T04:18:02.058Z,5.96
2019-01-14T04:19:02.191Z,5.97
2019-01-14T04:20:02.574Z,5.97
2019-01-14T04:21:02.094Z,5.97
2019-01-14T04:22:02.307Z,5.98
2019-01-14T04:23:02.080Z,5.99
2019-01-14T04:24:02.107Z,6.01
2019-01-14T04:25:02.144Z,6
2019-01-14T04:26:02.679Z,6
2019-01-14T04:27:02.350Z,6
2019-01-14T04:28:02.229Z,6.01
2019-01-14T04:29:02.465Z,6.01
2019-01-14T04:30:02.158Z,6.03
2019-01-14T04:31:02.162Z,6.02
2019-01-14T04:32:02.376Z,6.03
2019-01-14T04:33:02.327Z,6.04
2019-01-14T04:34:02.398Z,6.04
2019-01-14T04:35:02.310Z,6.04
2019-01-14T04:36:03.831Z,6
2019-01-14T04:37:02.445Z,6
2019-01-14T04:38:02.423Z,6.03
2019-01-14T04:39:02.383Z,6.02
2019-01-14T04:40:02.324Z,6.03
2019-01-14T04:41:02.161Z,6.03
2019-01-14T04:42:02.349Z,6.04
2019-01-14T04:43:02.231Z,6.04
2019-01-14T04:44:02.049Z,6.02
2019-01-14T04:45:02.347Z,6
2019-01-14T04:46:02.203Z,6.02
2019-01-14T04:47:02.182Z,6.04
2019-01-14T04:48:02.507Z,6.05
2019-01-14T04:49:02.242Z,6.03
2019-01-14T04:50:02.300Z,6.04
2019-01-14T04:51:02.917Z,6.03
2019-01-14T04:52:02.070Z,6.03
2019-01-14T04:53:02.313Z,6.04
2019-01-14T04:54:02.207Z,6.02
2019-01-14T04:55:02.041Z,6.02
2019-01-14T04:56:02.532Z,6.01
2019-01-14T04:57:02.300Z,6.02
2019-01-14T04:58:02.374Z,6.04
2019-01-14T04:59:02.060Z,6.05
2019-01-14T05:00:02.360Z,6.07
2019-01-14T05:01:02.087Z,6.06
2019-01-14T05:02:02.013Z,6.03
2019-01-14T05:03:02.145Z,6.03
2019-01-14T05:04:02.376Z,6.03
2019-01-14T05:05:02.418Z,6.03
2019-01-14T05:06:02.118Z,6.03
2019-01-14T05:07:02.089Z,5.99
2019-01-14T05:08:02.267Z,6
2019-01-14T05:09:02.010Z,6.01
2019-01-14T05:10:02.481Z,6.01
2019-01-14T05:11:01.973Z,6.01
2019-01-14T05:12:01.965Z,6.02
2019-01-14T05:13:02.436Z,6.02
2019-01-14T05:14:02.274Z,6
2019-01-14T05:15:02.376Z,6.01
2019-01-14T05:16:02.105Z,6
2019-01-14T05:17:02.371Z,6
2019-01-14T05:18:02.006Z,5.98
2019-01-14T05:19:02.265Z,5.98
2019-01-14T05:20:03.877Z,6.01
2019-01-14T05:21:02.630Z,5.99
2019-01-14T05:22:02.080Z,5.99
2019-01-14T05:23:02.071Z,5.99
2019-01-14T05:24:02.054Z,5.99
2019-01-14T05:25:02.104Z,6
2019-01-14T05:26:02.117Z,5.97
2019-01-14T05:27:02.158Z,5.98
2019-01-14T05:28:02.172Z,6
2019-01-14T05:29:02.377Z,5.97
2019-01-14T05:30:02.248Z,6
2019-01-14T05:31:02.258Z,5.97
2019-01-14T05:32:02.067Z,5.97
2019-01-14T05:33:02.166Z,5.96
2019-01-14T05:34:01.956Z,5.96
2019-01-14T05:35:02.380Z,5.96
2019-01-14T05:36:02.371Z,5.96
2019-01-14T05:37:02.305Z,5.91
2019-01-14T05:38:02.409Z,5.91
2019-01-14T05:39:02.634Z,5.92
2019-01-14T05:40:02.201Z,5.92
2019-01-14T05:41:02.845Z,5.9
2019-01-14T05:42:02.133Z,5.92
2019-01-14T05:43:02.253Z,5.91
2019-01-14T05:44:02.029Z,5.92
2019-01-14T05:45:01.952Z,5.92
2019-01-14T05:46:02.022Z,5.94
2019-01-14T05:47:02.027Z,5.94
2019-01-14T05:48:02.213Z,5.92
2019-01-14T05:49:02.243Z,5.94
2019-01-14T05:50:02.312Z,5.95
2019-01-14T05:51:02.116Z,5.94
2019-01-14T05:52:02.299Z,5.93
2019-01-14T05:53:02.346Z,5.96
2019-01-14T05:54:02.289Z,5.94
2019-01-14T05:55:03.156Z,5.97
2019-01-14T05:56:01.991Z,5.95
2019-01-14T05:57:02.334Z,5.96
2019-01-14T05:58:02.134Z,5.96
2019-01-14T05:59:02.355Z,5.96
2019-01-14T06:00:02.265Z,5.97
2019-01-14T06:01:02.471Z,5.95
2019-01-14T06:02:01.939Z,5.95
2019-01-14T06:03:02.037Z,5.96
2019-01-14T06:04:02.209Z,5.96
2019-01-14T06:05:03.256Z,5.95
2019-01-14T06:06:01.970Z,5.97
2019-01-14T06:07:02.237Z,5.99
2019-01-14T06:08:02.246Z,5.97
2019-01-14T06:09:02.225Z,5.94
2019-01-14T06:10:02.047Z,5.97
2019-01-14T06:11:02.435Z,5.95
2019-01-14T06:12:02.185Z,5.95
2019-01-14T06:13:01.889Z,5.96
2019-01-14T06:14:01.894Z,5.99
2019-01-14T06:15:01.988Z,5.98
2019-01-14T06:16:02.404Z,5.96
2019-01-14T06:17:01.855Z,5.96
2019-01-14T06:18:02.262Z,5.98
2019-01-14T06:19:02.219Z,5.98
2019-01-14T06:20:02.048Z,6
2019-01-14T06:21:02.109Z,5.96
2019-01-14T06:22:02.300Z,5.95
2019-01-14T06:23:01.925Z,5.94
2019-01-14T06:24:02.337Z,5.97
2019-01-14T06:25:01.824Z,5.94
2019-01-14T06:26:02.352Z,5.95
2019-01-14T06:27:01.916Z,5.94
2019-01-14T06:28:01.944Z,5.94
2019-01-14T06:29:02.100Z,5.95
2019-01-14T06:30:01.887Z,5.95
2019-01-14T06:31:01.896Z,5.94
2019-01-14T06:32:01.872Z,5.93
2019-01-14T06:33:03.297Z,5.92
2019-01-14T06:34:02.741Z,5.94
2019-01-14T06:35:02.193Z,5.94
2019-01-14T06:36:02.210Z,5.95
2019-01-14T06:37:02.143Z,5.97
2019-01-14T06:38:01.805Z,5.93
2019-01-14T06:39:02.548Z,5.93
2019-01-14T06:40:02.945Z,5.94
2019-01-14T06:41:01.892Z,5.94
2019-01-14T06:42:02.297Z,5.93
2019-01-14T06:43:02.187Z,5.95
2019-01-14T06:44:02.182Z,5.95
2019-01-14T06:45:02.190Z,5.92
2019-01-14T06:46:02.076Z,5.91
2019-01-14T06:47:02.074Z,5.93
2019-01-14T06:48:02.146Z,5.93
2019-01-14T06:49:01.905Z,5.9
2019-01-14T06:50:02.206Z,5.9
2019-01-14T06:51:02.275Z,5.9
2019-01-14T06:52:03.243Z,5.91
2019-01-14T06:53:02.057Z,5.86
2019-01-14T06:54:02.087Z,5.87
2019-01-14T06:55:02.718Z,5.87
2019-01-14T06:56:01.882Z,5.88
2019-01-14T06:57:02.141Z,5.89
2019-01-14T06:59:02.045Z,5.85
2019-01-14T07:00:02.181Z,5.86
2019-01-14T07:01:01.837Z,5.86
2019-01-14T07:02:01.810Z,5.87
2019-01-14T07:03:02.311Z,5.86
2019-01-14T07:04:01.890Z,5.87
2019-01-14T07:05:02.095Z,5.85
2019-01-14T07:06:02.230Z,5.88
2019-01-14T07:07:02.334Z,5.89
2019-01-14T07:08:02.227Z,5.84
2019-01-14T07:09:01.899Z,5.85
2019-01-14T07:10:01.965Z,5.86
2019-01-14T07:11:02.339Z,5.87
2019-01-14T07:12:01.840Z,5.87
2019-01-14T07:13:02.030Z,5.85
2019-01-14T07:14:02.173Z,5.87
2019-01-14T07:15:02.448Z,5.85
2019-01-14T07:16:01.887Z,5.85
2019-01-14T07:17:01.878Z,5.86
2019-01-14T07:18:01.892Z,5.86
2019-01-14T07:19:02.137Z,5.83
2019-01-14T07:20:01.881Z,5.85
2019-01-14T07:21:01.888Z,5.84
2019-01-14T07:22:02.133Z,5.83
2019-01-14T07:23:01.816Z,5.85
2019-01-14T07:24:01.779Z,5.87
2019-01-14T07:25:02.100Z,5.87
2019-01-14T07:26:02.149Z,5.84
2019-01-14T07:27:01.784Z,5.85
2019-01-14T07:28:01.851Z,5.83
2019-01-14T07:29:02.165Z,5.86
2019-01-14T07:30:02.379Z,5.83
2019-01-14T07:31:01.782Z,5.83
2019-01-14T07:32:01.820Z,5.86
2019-01-14T07:33:01.853Z,5.85
2019-01-14T07:34:01.902Z,5.86
2019-01-14T07:35:02.627Z,5.85
2019-01-14T07:36:01.861Z,5.85
2019-01-14T07:37:01.806Z,5.86
2019-01-14T07:38:07.408Z,5.87
2019-01-14T07:39:02.237Z,5.88
2019-01-14T07:40:01.879Z,5.86
2019-01-14T07:41:02.446Z,5.83
2019-01-14T07:42:01.718Z,5.87
2019-01-14T07:43:02.177Z,5.84
2019-01-14T07:44:01.739Z,5.86
2019-01-14T07:45:01.758Z,5.87
2019-01-14T07:46:01.973Z,5.88
2019-01-14T07:47:01.772Z,5.87
2019-01-14T07:48:01.760Z,5.84
2019-01-14T07:49:01.746Z,5.87
2019-01-14T07:50:01.950Z,5.86
2019-01-14T07:51:01.881Z,5.86
2019-01-14T07:52:01.952Z,5.85
2019-01-14T07:53:02.202Z,5.87
2019-01-14T07:54:01.933Z,5.88
2019-01-14T07:55:02.052Z,5.88
2019-01-14T07:56:02.054Z,5.88
2019-01-14T07:57:02.088Z,5.89
2019-01-14T07:58:02.163Z,5.89
2019-01-14T07:59:02.162Z,5.89
2019-01-14T08:00:02.136Z,5.88
2019-01-14T08:01:01.803Z,5.88
2019-01-14T08:02:02.214Z,5.88
2019-01-14T08:03:01.902Z,5.9
2019-01-14T08:04:02.184Z,5.88
2019-01-14T08:05:01.903Z,5.9
2019-01-14T08:06:01.765Z,5.9
2019-01-14T08:07:02.387Z,5.88
2019-01-14T08:08:01.951Z,5.89
2019-01-14T08:09:02.016Z,5.87
2019-01-14T08:10:01.921Z,5.89
2019-01-14T08:11:02.138Z,5.89
2019-01-14T08:12:02.328Z,5.88
2019-01-14T08:13:01.756Z,5.88
2019-01-14T08:14:01.721Z,5.9
2019-01-14T08:15:01.862Z,5.92
2019-01-14T08:16:01.493Z,5.92
2019-01-14T08:17:01.970Z,5.91
2019-01-14T08:18:02.668Z,5.92
2019-01-14T08:19:01.815Z,5.95
2019-01-14T08:20:01.747Z,5.93
2019-01-14T08:21:01.845Z,5.97
2019-01-14T08:22:01.780Z,5.96
2019-01-14T08:23:01.758Z,5.98
2019-01-14T08:24:01.686Z,6.02
2019-01-14T08:25:02.546Z,6.04
2019-01-14T08:26:01.902Z,6.04
2019-01-14T08:27:02.139Z,6.04
2019-01-14T08:28:02.135Z,6.03
2019-01-14T08:29:01.685Z,6.04
2019-01-14T08:30:01.779Z,6.03
2019-01-14T08:31:03.624Z,6.04
2019-01-14T08:32:02.236Z,6.02
2019-01-14T08:33:01.985Z,6.04
2019-01-14T08:34:02.078Z,6.06
2019-01-14T08:35:02.040Z,6.07
2019-01-14T08:36:01.790Z,6.07
2019-01-14T08:37:01.755Z,6.08
2019-01-14T08:38:01.723Z,6.09
2019-01-14T08:39:01.915Z,6.1
2019-01-14T08:40:02.256Z,6.08
2019-01-14T08:41:01.729Z,6.06
2019-01-14T08:42:01.835Z,6.07
2019-01-14T08:43:01.904Z,6.04
2019-01-14T08:44:01.709Z,6.07
2019-01-14T08:45:02.072Z,6.06
2019-01-14T08:46:01.822Z,6.05
2019-01-14T08:47:01.766Z,6.05
2019-01-14T08:48:01.680Z,6.08
2019-01-14T08:49:01.870Z,6.09
2019-01-14T08:50:01.984Z,6.06
2019-01-14T08:51:02.008Z,6.07
2019-01-14T08:52:01.761Z,6.05
2019-01-14T08:53:02.334Z,6.04
2019-01-14T08:54:02.153Z,6.04
2019-01-14T08:55:01.955Z,6.04
2019-01-14T08:56:01.682Z,6.06
2019-01-14T08:57:01.802Z,6.04
2019-01-14T08:58:01.903Z,6.03
2019-01-14T08:59:01.802Z,6.02
2019-01-14T09:00:01.991Z,6.04
2019-01-14T09:01:02.312Z,6.03
2019-01-14T09:02:01.741Z,6.04
2019-01-14T09:03:01.899Z,6.05
2019-01-14T09:04:02.187Z,6.08
2019-01-14T09:05:02.642Z,6.09
2019-01-14T09:06:03.549Z,6.08
2019-01-14T09:07:01.943Z,6.1
2019-01-14T09:08:01.778Z,6.13
2019-01-14T09:09:01.740Z,6.08
2019-01-14T09:10:02.081Z,6.09
2019-01-14T09:11:02.225Z,6.1
2019-01-14T09:12:01.895Z,6.11
2019-01-14T09:13:01.639Z,6.14
2019-01-14T09:15:01.680Z,6.13
2019-01-14T09:16:01.812Z,6.14
2019-01-14T09:17:03.929Z,6.15
2019-01-14T09:18:03.354Z,6.12
2019-01-14T09:19:01.822Z,6.13
2019-01-14T09:20:01.556Z,6.12
2019-01-14T09:21:02.324Z,6.15
2019-01-14T09:22:01.607Z,6.14
2019-01-14T09:23:01.963Z,6.14
2019-01-14T09:24:02.168Z,6.15
2019-01-14T09:25:18.182Z,6.16
2019-01-14T09:26:01.723Z,6.16
2019-01-14T09:27:01.645Z,6.16
2019-01-14T09:28:01.911Z,6.17
2019-01-14T09:29:01.641Z,6.19
2019-01-14T09:30:02.926Z,6.17
2019-01-14T09:31:18.308Z,6.15
2019-01-14T09:32:02.527Z,6.16
2019-01-14T09:33:01.703Z,6.18
2019-01-14T09:34:01.696Z,6.17
2019-01-14T09:35:01.600Z,6.16
2019-01-14T09:36:01.630Z,6.2
2019-01-14T09:37:01.716Z,6.17
2019-01-14T09:38:01.816Z,6.18
2019-01-14T09:39:01.661Z,6.19
2019-01-14T09:40:01.641Z,6.19
2019-01-14T09:41:01.597Z,6.21
2019-01-14T09:42:03.427Z,6.12
2019-01-14T09:43:01.993Z,6.11
2019-01-14T09:44:02.535Z,6.13
2019-01-14T09:45:01.745Z,6.19
2019-01-14T09:46:01.831Z,6.16
2019-01-14T09:47:01.585Z,6.09
2019-01-14T09:48:01.918Z,6.14
2019-01-14T09:49:01.131Z,6.12
2019-01-14T09:50:01.904Z,6.08
2019-01-14T09:51:03.477Z,6.1
2019-01-14T09:52:01.568Z,6.13
2019-01-14T09:53:01.617Z,6.1
2019-01-14T09:54:01.686Z,6.11
2019-01-14T09:55:06.152Z,6.11
2019-01-14T09:56:01.824Z,6.1
2019-01-14T09:57:01.970Z,6.09
2019-01-14T09:58:01.637Z,6.14
2019-01-14T09:59:01.977Z,6.11
2019-01-14T10:00:01.784Z,6.09
2019-01-14T10:01:07.853Z,6.07
2019-01-14T10:02:05.618Z,6.09
2019-01-14T10:03:02.104Z,6.07
2019-01-14T10:04:01.648Z,6.05
2019-01-14T10:05:01.787Z,6.08
2019-01-14T10:06:01.672Z,6.09
2019-01-14T10:07:01.585Z,6.09
2019-01-14T10:08:01.584Z,6.09
2019-01-14T10:09:01.161Z,6.1
2019-01-14T10:10:01.644Z,6.14
2019-01-14T10:11:01.682Z,6.13
2019-01-14T10:12:01.992Z,6.14
2019-01-14T10:13:01.666Z,6.16
2019-01-14T10:14:01.839Z,6.1
2019-01-14T10:15:01.841Z,6.07
2019-01-14T10:16:02.661Z,6.13
2019-01-14T10:17:02.257Z,6.12
2019-01-14T10:18:01.948Z,6.12
2019-01-14T10:19:03.346Z,6.13
2019-01-14T10:20:02.169Z,6.12
2019-01-14T10:21:01.800Z,6.12
2019-01-14T10:22:02.001Z,6.14
2019-01-14T10:23:01.592Z,6.16
2019-01-14T10:24:01.644Z,6.17
2019-01-14T10:25:01.748Z,6.18
2019-01-14T10:26:01.523Z,6.12
2019-01-14T10:27:01.488Z,6.15
2019-01-14T10:28:01.747Z,6.13
2019-01-14T10:29:01.635Z,6.14
2019-01-14T10:30:01.598Z,6.12
2019-01-14T10:31:01.872Z,6.13
2019-01-14T10:32:01.981Z,6.12
2019-01-14T10:33:01.522Z,6.1
2019-01-14T10:34:03.210Z,6.13
2019-01-14T10:35:01.767Z,6.09
2019-01-14T10:36:01.730Z,6.06
2019-01-14T10:37:01.623Z,6.09
2019-01-14T10:38:02.234Z,6.11
2019-01-14T10:39:01.931Z,6.08
2019-01-14T10:40:01.513Z,6.12
2019-01-14T10:41:01.560Z,6.05
2019-01-14T10:42:05.524Z,6.02
2019-01-14T10:43:02.625Z,6.03
2019-01-14T10:44:01.506Z,6.02
2019-01-14T10:45:01.563Z,6.04
2019-01-14T10:46:01.650Z,6.03
2019-01-14T10:47:01.672Z,6.03
2019-01-14T10:48:01.628Z,6.01
2019-01-14T10:49:01.283Z,6.03
2019-01-14T10:50:01.591Z,6.02
2019-01-14T10:51:02.054Z,5.96
2019-01-14T10:52:01.896Z,6.03
2019-01-14T10:53:01.513Z,6.03
2019-01-14T10:54:01.822Z,6.04
2019-01-14T10:55:01.585Z,6.05
2019-01-14T10:56:01.783Z,6.03
2019-01-14T10:57:01.596Z,6.05
2019-01-14T10:58:01.834Z,6
2019-01-14T10:59:02.053Z,6.01
2019-01-14T11:00:02.760Z,6.02
2019-01-14T11:01:01.526Z,6.02
2019-01-14T11:02:01.586Z,6.01
2019-01-14T11:03:01.948Z,6.01
2019-01-14T11:04:01.522Z,6.02
2019-01-14T11:05:01.634Z,6.01
2019-01-14T11:06:02.033Z,6
2019-01-14T11:07:03.472Z,6.03
2019-01-14T11:08:01.443Z,5.97
2019-01-14T11:09:06.408Z,5.96
2019-01-14T11:10:01.624Z,6.01
2019-01-14T11:11:01.532Z,5.98
2019-01-14T11:12:01.455Z,5.99
2019-01-14T11:13:01.476Z,5.99
2019-01-14T11:14:01.405Z,6.02
2019-01-14T11:15:03.547Z,6.07
2019-01-14T11:16:01.441Z,6.06
2019-01-14T11:17:02.544Z,6.09
2019-01-14T11:18:01.580Z,6.09
2019-01-14T11:19:01.573Z,6.08
2019-01-14T11:20:01.447Z,6.07
2019-01-14T11:21:01.459Z,6.03
2019-01-14T11:22:01.402Z,6.03
2019-01-14T11:23:01.462Z,6.05
2019-01-14T11:24:02.028Z,6.04
2019-01-14T11:25:02.788Z,6.03
2019-01-14T11:26:01.439Z,6.02
2019-01-14T11:27:01.400Z,5.92
2019-01-14T11:28:01.503Z,5.98
2019-01-14T11:29:01.432Z,6.01
2019-01-14T11:30:01.455Z,6.02
2019-01-14T11:31:02.501Z,6.04
2019-01-14T11:32:01.434Z,5.98
2019-01-14T11:34:01.728Z,6.01
2019-01-14T11:35:01.496Z,5.97
2019-01-14T11:36:01.361Z,5.97
2019-01-14T11:37:01.440Z,5.97
2019-01-14T11:38:01.366Z,5.94
2019-01-14T11:39:05.570Z,5.93
2019-01-14T11:40:01.964Z,5.97
2019-01-14T11:41:01.493Z,6.01
2019-01-14T11:42:01.739Z,6
2019-01-14T11:43:01.850Z,5.99
2019-01-14T11:44:01.682Z,5.99
2019-01-14T11:45:01.630Z,5.94
2019-01-14T11:46:01.495Z,5.96
2019-01-14T11:47:02.186Z,5.95
2019-01-14T11:48:01.713Z,5.97
2019-01-14T11:49:01.421Z,6
2019-01-14T11:50:01.908Z,6.01
2019-01-14T11:51:01.613Z,6.03
2019-01-14T11:52:01.913Z,5.98
2019-01-14T11:53:01.731Z,6.03
2019-01-14T11:54:01.424Z,5.94
2019-01-14T11:55:01.498Z,6.02
2019-01-14T11:56:01.447Z,5.82
2019-01-14T11:57:01.634Z,5.67
2019-01-14T11:58:01.857Z,5.7
2019-01-14T11:59:01.426Z,5.77
2019-01-14T12:00:02.182Z,5.77
2019-01-14T12:01:02.298Z,5.69
2019-01-14T12:02:03.210Z,5.57
2019-01-14T12:03:01.478Z,5.57
2019-01-14T12:04:01.390Z,5.61
2019-01-14T12:05:01.443Z,5.66
2019-01-14T12:06:01.704Z,5.68
2019-01-14T12:07:01.838Z,5.7
2019-01-14T12:08:01.492Z,5.7
2019-01-14T12:09:02.042Z,5.67
2019-01-14T12:10:01.566Z,5.73
2019-01-14T12:11:01.147Z,5.71
2019-01-14T12:12:01.688Z,5.72
2019-01-14T12:13:01.367Z,5.7
2019-01-14T12:14:01.353Z,5.7
2019-01-14T12:15:01.680Z,5.73
2019-01-14T12:16:01.913Z,5.66
2019-01-14T12:17:01.397Z,5.7
2019-01-14T12:18:01.403Z,5.71
2019-01-14T12:19:02.088Z,5.64
2019-01-14T12:20:01.505Z,5.62
2019-01-14T12:21:01.456Z,5.62
2019-01-14T12:22:01.475Z,5.63
2019-01-14T12:23:01.413Z,5.62
2019-01-14T12:24:01.572Z,5.65
2019-01-14T12:25:01.402Z,5.69
2019-01-14T12:26:01.498Z,5.65
2019-01-14T12:27:01.660Z,5.67
2019-01-14T12:28:01.429Z,5.64
2019-01-14T12:29:01.411Z,5.69
2019-01-14T12:30:01.446Z,5.71
2019-01-14T12:31:01.775Z,5.71
2019-01-14T12:32:01.362Z,5.69
2019-01-14T12:33:02.581Z,5.71
2019-01-14T12:34:01.599Z,5.69
2019-01-14T12:35:01.342Z,5.69
2019-01-14T12:36:01.404Z,5.69
2019-01-14T12:37:01.602Z,5.7
2019-01-14T12:38:01.562Z,5.73
2019-01-14T12:39:01.642Z,5.73
2019-01-14T12:40:01.744Z,5.74
2019-01-14T12:41:01.738Z,5.73
2019-01-14T12:42:01.496Z,5.73
2019-01-14T12:43:03.194Z,5.74
2019-01-14T12:44:01.665Z,5.77
2019-01-14T12:45:01.501Z,5.77
2019-01-14T12:46:01.318Z,5.77
2019-01-14T12:47:01.561Z,5.77
2019-01-14T12:48:01.365Z,5.76
2019-01-14T12:49:01.472Z,5.77
2019-01-14T12:50:01.725Z,5.81
2019-01-14T12:51:02.197Z,5.8
2019-01-14T12:52:01.531Z,5.77
2019-01-14T12:53:01.379Z,5.75
2019-01-14T12:54:01.549Z,5.78
2019-01-14T12:55:01.360Z,5.78
2019-01-14T12:56:02.161Z,5.81
2019-01-14T12:57:01.433Z,5.81
2019-01-14T12:58:01.502Z,5.8
2019-01-14T12:59:01.413Z,5.81
2019-01-14T13:00:01.399Z,5.79
2019-01-14T13:01:01.470Z,5.8
2019-01-14T13:02:01.425Z,5.77
2019-01-14T13:03:01.358Z,5.79
2019-01-14T13:04:01.463Z,5.81
2019-01-14T13:05:01.282Z,5.82
2019-01-14T13:06:01.465Z,5.81
2019-01-14T13:07:01.420Z,5.8
2019-01-14T13:08:01.476Z,5.81
2019-01-14T13:09:01.462Z,5.82
2019-01-14T13:10:01.340Z,5.81
2019-01-14T13:11:01.282Z,5.78
2019-01-14T13:12:01.649Z,5.79
2019-01-14T13:13:01.286Z,5.83
2019-01-14T13:14:01.354Z,5.82
2019-01-14T13:15:01.301Z,5.8
2019-01-14T13:16:01.248Z,5.84
2019-01-14T13:17:01.672Z,5.85
2019-01-14T13:18:05.879Z,5.79
2019-01-14T13:19:01.370Z,5.79
2019-01-14T13:20:01.485Z,5.8
2019-01-14T13:21:01.278Z,5.84
2019-01-14T13:22:01.261Z,5.84
2019-01-14T13:23:01.758Z,5.83
2019-01-14T13:24:01.733Z,5.82
2019-01-14T13:25:01.550Z,5.85